createdAt,value
2018-01-20T00:00:26.822Z,78.43
2018-01-20T00:01:26.832Z,78.05
2018-01-20T00:02:26.849Z,77.48
2018-01-20T00:03:26.868Z,77.29
2018-01-20T00:04:26.874Z,77.01
2018-01-20T00:05:26.889Z,76.92
2018-01-20T00:06:26.905Z,76.73
2018-01-20T00:07:26.914Z,76.82
2018-01-20T00:08:26.942Z,77.29
2018-01-20T00:09:26.936Z,76.92
2018-01-20T00:10:26.965Z,76.92
2018-01-20T00:11:26.965Z,76.25
2018-01-20T00:12:26.976Z,76.25
2018-01-20T00:13:26.993Z,76.63
2018-01-20T00:14:27.004Z,76.34
2018-01-20T00:15:27.032Z,76.34
2018-01-20T00:16:27.033Z,76.54
2018-01-20T00:17:27.047Z,76.25
2018-01-20T00:18:27.054Z,76.25
2018-01-20T00:19:27.075Z,76.34
2018-01-20T00:20:27.080Z,76.44
2018-01-20T00:21:27.093Z,76.15
2018-01-20T00:22:27.113Z,76.25
2018-01-20T00:23:27.121Z,75.59
2018-01-20T00:24:27.131Z,75.78
2018-01-20T00:25:27.145Z,75.78
2018-01-20T00:26:27.157Z,75.78
2018-01-20T00:27:27.172Z,75.87
2018-01-20T00:28:27.188Z,75.59
2018-01-20T00:29:27.199Z,75.49
2018-01-20T00:30:27.213Z,75.21
2018-01-20T00:31:27.228Z,75.02
2018-01-20T00:32:27.238Z,75.11
2018-01-20T00:33:27.247Z,75.02
2018-01-20T00:34:27.264Z,74.92
2018-01-20T00:35:27.276Z,74.83
2018-01-20T00:36:27.288Z,75.21
2018-01-20T00:37:27.307Z,74.92
2018-01-20T00:38:27.317Z,74.92
2018-01-20T00:39:27.329Z,75.31
2018-01-20T00:40:27.339Z,75.21
2018-01-20T00:41:27.367Z,75.11
2018-01-20T00:42:27.398Z,74.64
2018-01-20T00:43:27.377Z,75.11
2018-01-20T00:44:27.398Z,74.54
2018-01-20T00:45:27.408Z,75.21
2018-01-20T00:46:27.421Z,75.68
2018-01-20T00:47:27.445Z,75.78
2018-01-20T00:48:27.445Z,75.11
2018-01-20T00:49:27.463Z,75.11
2018-01-20T00:50:27.475Z,76.15
2018-01-20T00:51:27.491Z,75.31
2018-01-20T00:52:27.499Z,74.64
2018-01-20T00:53:27.510Z,75.21
2018-01-20T00:54:27.521Z,75.11
2018-01-20T00:55:27.539Z,75.21
2018-01-20T00:56:27.549Z,74.92
2018-01-20T00:57:27.641Z,75.21
2018-01-20T00:58:27.580Z,75.02
2018-01-20T00:59:27.586Z,75.11
2018-01-20T01:00:27.597Z,75.31
2018-01-20T01:01:27.614Z,74.73
2018-01-20T01:02:27.627Z,74.73
2018-01-20T01:03:27.647Z,74.83
2018-01-20T01:04:27.659Z,74.83
2018-01-20T01:05:27.661Z,75.02
2018-01-20T01:06:27.670Z,74.92
2018-01-20T01:07:27.695Z,74.73
2018-01-20T01:08:27.711Z,75.02
2018-01-20T01:09:27.713Z,74.64
2018-01-20T01:10:27.727Z,74.64
2018-01-20T01:11:27.741Z,74.64
2018-01-20T01:12:27.768Z,74.73
2018-01-20T01:13:27.762Z,75.11
2018-01-20T01:14:27.780Z,75.21
2018-01-20T01:15:27.792Z,75.11
2018-01-20T01:16:27.805Z,76.06
2018-01-20T01:17:27.815Z,76.54
2018-01-20T01:18:27.848Z,76.73
2018-01-20T01:19:27.852Z,76.78
2018-01-20T01:20:27.861Z,76.87
2018-01-20T01:21:27.866Z,77.25
2018-01-20T01:22:27.880Z,77.29
2018-01-20T01:23:27.892Z,77.39
2018-01-20T01:24:27.904Z,77.06
2018-01-20T01:25:27.919Z,77.73
2018-01-20T01:26:27.933Z,78.30
2018-01-20T01:27:27.946Z,78.77
2018-01-20T01:28:27.958Z,78.87
2018-01-20T01:29:27.968Z,79.63
2018-01-20T01:30:27.984Z,79.25
2018-01-20T01:31:27.998Z,80.57
2018-01-20T01:32:28.008Z,80.19
2018-01-20T01:33:28.020Z,80.19
2018-01-20T01:34:28.030Z,80.19
2018-01-20T01:35:28.050Z,80.38
2018-01-20T01:36:28.058Z,80.76
2018-01-20T01:37:28.072Z,80.76
2018-01-20T01:38:28.080Z,81.20
2018-01-20T01:39:28.093Z,81.20
2018-01-20T01:40:28.110Z,81.76
2018-01-20T01:41:28.121Z,81.48
2018-01-20T01:42:28.133Z,81.10
2018-01-20T01:43:28.166Z,81.01
2018-01-20T01:44:28.156Z,80.82
2018-01-20T01:45:28.181Z,80.91
2018-01-20T01:46:28.245Z,80.91
2018-01-20T01:47:28.191Z,80.82
2018-01-20T01:48:28.206Z,80.63
2018-01-20T01:49:28.215Z,80.82
2018-01-20T01:50:28.229Z,80.25
2018-01-20T01:51:28.243Z,80.44
2018-01-20T01:52:28.257Z,80.82
2018-01-20T01:53:28.272Z,81.29
2018-01-20T01:54:28.282Z,81.29
2018-01-20T01:55:28.286Z,81.48
2018-01-20T01:56:28.307Z,80.82
2018-01-20T01:57:28.318Z,81.01
2018-01-20T01:58:28.323Z,81.29
2018-01-20T01:59:28.348Z,81.72
2018-01-20T02:00:28.438Z,82.29
2018-01-20T02:01:28.382Z,82.48
2018-01-20T02:02:28.380Z,82.76
2018-01-20T02:03:28.387Z,83.05
2018-01-20T02:04:28.405Z,82.29
2018-01-20T02:05:28.410Z,82.57
2018-01-20T02:06:28.430Z,83.43
2018-01-20T02:07:28.437Z,84.38
2018-01-20T02:08:28.450Z,84.66
2018-01-20T02:09:28.470Z,84.85
2018-01-20T02:10:28.476Z,84.85
2018-01-20T02:11:28.495Z,84.85
2018-01-20T02:12:28.504Z,85.04
2018-01-20T02:13:28.514Z,84.75
2018-01-20T02:14:28.525Z,85.32
2018-01-20T02:15:28.539Z,85.42
2018-01-20T02:16:28.552Z,84.75
2018-01-20T02:17:28.572Z,84.19
2018-01-20T02:18:28.575Z,84.09
2018-01-20T02:19:28.584Z,83.81
2018-01-20T02:20:28.611Z,84.13
2018-01-20T02:21:28.613Z,82.71
2018-01-20T02:22:28.621Z,82.76
2018-01-20T02:23:28.639Z,83.09
2018-01-20T02:24:28.654Z,82.14
2018-01-20T02:25:28.665Z,81.01
2018-01-20T02:26:28.692Z,81.29
2018-01-20T02:27:28.691Z,81.10
2018-01-20T02:28:28.703Z,81.38
2018-01-20T02:29:28.713Z,81.95
2018-01-20T02:30:28.728Z,82.71
2018-01-20T02:31:28.747Z,83.71
2018-01-20T02:32:28.782Z,84.28
2018-01-20T02:33:28.765Z,84.19
2018-01-20T02:34:28.790Z,84.19
2018-01-20T02:35:28.814Z,84.42
2018-01-20T02:36:28.809Z,83.81
2018-01-20T02:37:28.814Z,83.43
2018-01-20T02:38:28.836Z,84.13
2018-01-20T02:39:28.844Z,83.28
2018-01-20T02:40:28.862Z,82.62
2018-01-20T02:41:28.871Z,81.57
2018-01-20T02:42:28.885Z,81.57
2018-01-20T02:43:28.894Z,81.01
2018-01-20T02:44:28.946Z,81.20
2018-01-20T02:45:28.920Z,81.01
2018-01-20T02:46:28.932Z,80.91
2018-01-20T02:47:28.950Z,80.53
2018-01-20T02:48:28.960Z,81.86
2018-01-20T02:49:28.973Z,81.48
2018-01-20T02:50:28.984Z,80.82
2018-01-20T02:51:28.999Z,81.38
2018-01-20T02:52:29.024Z,81.01
2018-01-20T02:53:29.025Z,81.38
2018-01-20T02:54:29.038Z,80.91
2018-01-20T02:55:29.080Z,80.06
2018-01-20T02:56:29.067Z,80.25
2018-01-20T02:57:29.077Z,80.82
2018-01-20T02:58:29.087Z,80.53
2018-01-20T02:59:29.101Z,80.15
2018-01-20T03:00:29.111Z,80.72
2018-01-20T03:01:29.134Z,81.92
2018-01-20T03:02:29.142Z,82.48
2018-01-20T03:03:29.152Z,83.00
2018-01-20T03:04:29.166Z,81.76
2018-01-20T03:05:29.181Z,81.67
2018-01-20T03:06:29.192Z,80.91
2018-01-20T03:07:29.209Z,81.10
2018-01-20T03:08:29.223Z,81.38
2018-01-20T03:09:29.239Z,81.67
2018-01-20T03:10:29.246Z,80.91
2018-01-20T03:11:29.259Z,80.82
2018-01-20T03:12:29.270Z,80.72
2018-01-20T03:13:29.284Z,82.20
2018-01-20T03:14:29.299Z,83.14
2018-01-20T03:15:29.307Z,84.09
2018-01-20T03:16:29.321Z,84.00
2018-01-20T03:17:29.335Z,83.81
2018-01-20T03:18:29.347Z,83.62
2018-01-20T03:19:29.362Z,84.00
2018-01-20T03:20:29.383Z,84.28
2018-01-20T03:21:29.396Z,84.09
2018-01-20T03:22:29.405Z,82.90
2018-01-20T03:23:29.416Z,82.14
2018-01-20T03:24:29.430Z,81.29
2018-01-20T03:25:29.443Z,81.29
2018-01-20T03:26:29.458Z,80.91
2018-01-20T03:27:29.476Z,81.29
2018-01-20T03:28:29.482Z,82.52
2018-01-20T03:29:29.496Z,81.95
2018-01-20T03:30:29.520Z,81.38
2018-01-20T03:31:29.528Z,81.57
2018-01-20T03:32:29.534Z,81.10
2018-01-20T03:33:29.576Z,81.38
2018-01-20T03:34:29.561Z,81.29
2018-01-20T03:35:29.583Z,81.14
2018-01-20T03:36:29.601Z,79.96
2018-01-20T03:37:29.598Z,80.15
2018-01-20T03:38:29.616Z,80.53
2018-01-20T03:39:29.631Z,81.01
2018-01-20T03:40:29.637Z,80.91
2018-01-20T03:41:29.650Z,80.72
2018-01-20T03:42:29.666Z,81.01
2018-01-20T03:43:29.680Z,81.38
2018-01-20T03:44:29.698Z,80.48
2018-01-20T03:45:29.766Z,80.63
2018-01-20T03:46:29.720Z,80.63
2018-01-20T03:47:29.740Z,80.10
2018-01-20T03:48:29.742Z,79.82
2018-01-20T03:49:29.763Z,79.91
2018-01-20T03:50:29.769Z,79.91
2018-01-20T03:51:29.789Z,80.00
2018-01-20T03:52:29.795Z,79.53
2018-01-20T03:53:29.812Z,79.53
2018-01-20T03:54:29.833Z,79.63
2018-01-20T03:55:29.841Z,79.63
2018-01-20T03:56:29.848Z,80.10
2018-01-20T03:57:29.867Z,80.10
2018-01-20T03:58:29.877Z,80.06
2018-01-20T03:59:29.891Z,80.72
2018-01-20T04:00:29.899Z,81.48
2018-01-20T04:01:29.916Z,82.90
2018-01-20T04:02:29.937Z,84.28
2018-01-20T04:03:29.949Z,84.38
2018-01-20T04:04:29.954Z,84.51
2018-01-20T04:05:29.964Z,84.13
2018-01-20T04:06:29.990Z,82.81
2018-01-20T04:07:30.003Z,83.18
2018-01-20T04:08:30.012Z,83.00
2018-01-20T04:09:30.017Z,82.52
2018-01-20T04:10:30.037Z,84.04
2018-01-20T04:11:30.053Z,83.28
2018-01-20T04:12:30.062Z,82.52
2018-01-20T04:13:30.076Z,82.14
2018-01-20T04:14:30.084Z,83.00
2018-01-20T04:15:30.108Z,83.56
2018-01-20T04:16:30.119Z,84.32
2018-01-20T04:17:30.141Z,84.89
2018-01-20T04:18:30.162Z,85.08
2018-01-20T04:19:30.159Z,84.89
2018-01-20T04:20:30.165Z,83.28
2018-01-20T04:21:30.178Z,83.00
2018-01-20T04:22:30.186Z,82.81
2018-01-20T04:23:30.206Z,83.18
2018-01-20T04:24:30.215Z,84.13
2018-01-20T04:25:30.234Z,83.85
2018-01-20T04:26:30.241Z,84.13
2018-01-20T04:27:30.252Z,84.23
2018-01-20T04:28:30.272Z,83.56
2018-01-20T04:29:30.317Z,83.28
2018-01-20T04:30:30.295Z,83.56
2018-01-20T04:31:30.308Z,84.42
2018-01-20T04:32:30.315Z,84.13
2018-01-20T04:33:30.330Z,83.04
2018-01-20T04:34:30.361Z,83.00
2018-01-20T04:35:30.360Z,83.85
2018-01-20T04:36:30.380Z,84.13
2018-01-20T04:37:30.380Z,84.04
2018-01-20T04:38:30.400Z,82.47
2018-01-20T04:39:30.416Z,83.28
2018-01-20T04:40:30.426Z,83.42
2018-01-20T04:41:30.436Z,82.56
2018-01-20T04:42:30.450Z,82.37
2018-01-20T04:43:30.459Z,82.09
2018-01-20T04:44:30.468Z,81.81
2018-01-20T04:45:30.485Z,82.18
2018-01-20T04:46:30.531Z,82.37
2018-01-20T04:47:30.505Z,82.28
2018-01-20T04:48:30.530Z,81.90
2018-01-20T04:49:30.539Z,82.18
2018-01-20T04:50:30.545Z,82.09
2018-01-20T04:51:30.563Z,83.04
2018-01-20T04:52:30.576Z,83.32
2018-01-20T04:53:30.589Z,83.13
2018-01-20T04:54:30.609Z,82.37
2018-01-20T04:55:30.616Z,82.37
2018-01-20T04:56:30.626Z,82.94
2018-01-20T04:57:30.644Z,83.42
2018-01-20T04:58:30.647Z,82.85
2018-01-20T04:59:30.667Z,83.04
2018-01-20T05:00:30.679Z,83.04
2018-01-20T05:01:30.685Z,83.32
2018-01-20T05:02:30.704Z,83.42
2018-01-20T05:03:30.715Z,83.51
2018-01-20T05:04:30.726Z,84.17
2018-01-20T05:05:30.742Z,83.51
2018-01-20T05:06:30.754Z,83.23
2018-01-20T05:07:30.768Z,83.42
2018-01-20T05:08:30.783Z,83.23
2018-01-20T05:09:30.794Z,83.42
2018-01-20T05:10:30.803Z,83.42
2018-01-20T05:11:30.819Z,83.80
2018-01-20T05:12:30.847Z,83.98
2018-01-20T05:13:30.841Z,84.55
2018-01-20T05:14:30.863Z,84.08
2018-01-20T05:15:30.870Z,83.89
2018-01-20T05:16:30.878Z,83.98
2018-01-20T05:17:30.903Z,84.08
2018-01-20T05:18:30.959Z,83.51
2018-01-20T05:19:30.918Z,83.42
2018-01-20T05:20:30.930Z,83.32
2018-01-20T05:21:30.942Z,83.42
2018-01-20T05:22:30.953Z,83.51
2018-01-20T05:23:30.971Z,83.32
2018-01-20T05:24:31.017Z,84.17
2018-01-20T05:25:30.998Z,84.08
2018-01-20T05:26:31.009Z,84.36
2018-01-20T05:27:31.017Z,84.17
2018-01-20T05:28:31.034Z,84.17
2018-01-20T05:29:31.050Z,83.70
2018-01-20T05:30:31.054Z,83.32
2018-01-20T05:31:31.069Z,83.89
2018-01-20T05:32:31.085Z,83.42
2018-01-20T05:33:31.089Z,83.61
2018-01-20T05:34:31.106Z,83.23
2018-01-20T05:35:31.124Z,83.18
2018-01-20T05:36:31.130Z,83.42
2018-01-20T05:37:31.149Z,83.32
2018-01-20T05:38:31.158Z,83.13
2018-01-20T05:39:31.173Z,83.42
2018-01-20T05:40:31.186Z,83.04
2018-01-20T05:41:31.189Z,83.13
2018-01-20T05:42:31.201Z,82.66
2018-01-20T05:43:31.219Z,82.85
2018-01-20T05:44:31.229Z,83.04
2018-01-20T05:45:31.240Z,82.94
2018-01-20T05:46:31.259Z,83.04
2018-01-20T05:47:31.319Z,83.85
2018-01-20T05:48:31.283Z,83.98
2018-01-20T05:49:31.289Z,83.61
2018-01-20T05:50:31.316Z,83.51
2018-01-20T05:51:31.319Z,83.04
2018-01-20T05:52:31.325Z,83.32
2018-01-20T05:53:31.339Z,83.04
2018-01-20T05:54:31.351Z,82.66
2018-01-20T05:55:31.372Z,83.51
2018-01-20T05:56:31.381Z,83.61
2018-01-20T05:57:31.393Z,83.51
2018-01-20T05:58:31.404Z,83.61
2018-01-20T05:59:31.416Z,83.04
2018-01-20T06:00:31.421Z,82.37
2018-01-20T06:01:31.443Z,83.04
2018-01-20T06:02:31.455Z,83.04
2018-01-20T06:03:31.463Z,83.23
2018-01-20T06:04:31.473Z,83.04
2018-01-20T06:05:31.492Z,83.04
2018-01-20T06:06:31.504Z,82.75
2018-01-20T06:07:31.518Z,82.56
2018-01-20T06:08:31.526Z,83.23
2018-01-20T06:09:31.543Z,83.51
2018-01-20T06:10:31.559Z,83.80
2018-01-20T06:11:31.559Z,83.23
2018-01-20T06:12:31.571Z,83.61
2018-01-20T06:13:31.589Z,83.51
2018-01-20T06:14:31.653Z,84.17
2018-01-20T06:15:31.615Z,83.98
2018-01-20T06:16:31.626Z,83.80
2018-01-20T06:17:31.637Z,83.89
2018-01-20T06:18:31.653Z,83.89
2018-01-20T06:19:31.661Z,83.80
2018-01-20T06:20:31.679Z,84.17
2018-01-20T06:21:31.689Z,83.51
2018-01-20T06:22:31.703Z,82.75
2018-01-20T06:23:31.714Z,83.13
2018-01-20T06:24:31.723Z,83.23
2018-01-20T06:25:31.745Z,83.04
2018-01-20T06:26:31.756Z,83.32
2018-01-20T06:27:31.760Z,83.42
2018-01-20T06:28:31.777Z,83.32
2018-01-20T06:29:31.789Z,83.23
2018-01-20T06:30:31.802Z,83.70
2018-01-20T06:31:31.823Z,84.17
2018-01-20T06:32:31.834Z,83.89
2018-01-20T06:33:31.838Z,84.36
2018-01-20T06:34:31.855Z,84.36
2018-01-20T06:35:31.866Z,83.98
2018-01-20T06:36:31.897Z,84.36
2018-01-20T06:37:31.890Z,84.27
2018-01-20T06:38:31.905Z,84.08
2018-01-20T06:39:31.924Z,83.70
2018-01-20T06:40:31.929Z,84.27
2018-01-20T06:41:31.944Z,84.46
2018-01-20T06:42:31.959Z,84.17
2018-01-20T06:43:31.964Z,83.89
2018-01-20T06:44:31.988Z,83.89
2018-01-20T06:45:32.002Z,84.17
2018-01-20T06:46:32.008Z,84.08
2018-01-20T06:47:32.018Z,83.32
2018-01-20T06:48:32.050Z,83.61
2018-01-20T06:49:32.043Z,83.42
2018-01-20T06:50:32.057Z,83.51
2018-01-20T06:51:32.066Z,82.79
2018-01-20T06:52:32.082Z,83.23
2018-01-20T06:53:32.095Z,84.17
2018-01-20T06:54:32.109Z,83.23
2018-01-20T06:55:32.121Z,83.04
2018-01-20T06:56:32.134Z,83.42
2018-01-20T06:57:32.145Z,83.89
2018-01-20T06:58:32.158Z,83.36
2018-01-20T06:59:32.170Z,83.89
2018-01-20T07:00:32.185Z,83.32
2018-01-20T07:01:32.203Z,83.27
2018-01-20T07:02:32.221Z,82.75
2018-01-20T07:03:32.255Z,83.23
2018-01-20T07:04:32.236Z,83.46
2018-01-20T07:05:32.254Z,83.42
2018-01-20T07:06:32.261Z,83.13
2018-01-20T07:07:32.274Z,83.04
2018-01-20T07:08:32.288Z,82.98
2018-01-20T07:09:32.301Z,83.04
2018-01-20T07:10:32.314Z,83.23
2018-01-20T07:11:32.332Z,83.51
2018-01-20T07:12:32.341Z,83.36
2018-01-20T07:13:32.365Z,82.13
2018-01-20T07:14:32.371Z,82.98
2018-01-20T07:15:32.378Z,81.94
2018-01-20T07:16:32.391Z,81.94
2018-01-20T07:17:32.442Z,82.04
2018-01-20T07:18:32.424Z,83.08
2018-01-20T07:19:32.435Z,82.70
2018-01-20T07:20:32.459Z,81.94
2018-01-20T07:21:32.459Z,82.04
2018-01-20T07:22:32.488Z,82.09
2018-01-20T07:23:32.489Z,82.60
2018-01-20T07:24:32.498Z,82.13
2018-01-20T07:25:32.511Z,81.85
2018-01-20T07:26:32.529Z,82.23
2018-01-20T07:27:32.536Z,82.79
2018-01-20T07:28:32.549Z,82.04
2018-01-20T07:29:32.561Z,81.75
2018-01-20T07:30:32.579Z,81.56
2018-01-20T07:31:32.586Z,82.13
2018-01-20T07:32:32.606Z,81.66
2018-01-20T07:33:32.611Z,81.85
2018-01-20T07:34:32.631Z,81.56
2018-01-20T07:35:32.652Z,81.47
2018-01-20T07:36:32.670Z,81.09
2018-01-20T07:37:32.675Z,81.37
2018-01-20T07:38:32.681Z,81.37
2018-01-20T07:39:32.693Z,80.99
2018-01-20T07:40:32.701Z,80.99
2018-01-20T07:41:32.714Z,80.62
2018-01-20T07:42:32.735Z,80.80
2018-01-20T07:43:32.763Z,80.90
2018-01-20T07:44:32.759Z,80.99
2018-01-20T07:45:32.776Z,80.52
2018-01-20T07:46:32.788Z,80.99
2018-01-20T07:47:32.802Z,81.09
2018-01-20T07:48:32.814Z,80.99
2018-01-20T07:49:32.823Z,80.62
2018-01-20T07:50:32.836Z,80.80
2018-01-20T07:51:32.865Z,80.80
2018-01-20T07:52:32.924Z,80.99
2018-01-20T07:53:32.874Z,81.09
2018-01-20T07:54:33.047Z,81.75
2018-01-20T07:55:32.911Z,81.09
2018-01-20T07:56:32.928Z,80.33
2018-01-20T07:57:33.044Z,81.27
2018-01-20T07:58:32.945Z,80.99
2018-01-20T07:59:32.956Z,81.18
2018-01-20T08:00:32.966Z,80.52
2018-01-20T08:01:32.992Z,80.33
2018-01-20T08:02:32.999Z,80.80
2018-01-20T08:03:33.009Z,81.47
2018-01-20T08:04:33.024Z,80.24
2018-01-20T08:05:33.035Z,80.33
2018-01-20T08:06:33.056Z,79.95
2018-01-20T08:07:33.074Z,79.95
2018-01-20T08:08:33.105Z,80.90
2018-01-20T08:09:33.092Z,80.71
2018-01-20T08:10:33.116Z,79.47
2018-01-20T08:11:33.118Z,79.95
2018-01-20T08:12:33.128Z,80.62
2018-01-20T08:13:33.148Z,81.27
2018-01-20T08:14:33.161Z,80.62
2018-01-20T08:15:33.177Z,80.80
2018-01-20T08:16:33.191Z,80.99
2018-01-20T08:17:33.203Z,81.27
2018-01-20T08:18:33.213Z,80.71
2018-01-20T08:19:33.228Z,80.71
2018-01-20T08:20:33.240Z,79.85
2018-01-20T08:21:33.255Z,80.04
2018-01-20T08:22:33.276Z,80.52
2018-01-20T08:23:33.278Z,80.04
2018-01-20T08:24:33.297Z,80.24
2018-01-20T08:25:33.305Z,79.28
2018-01-20T08:26:33.325Z,78.85
2018-01-20T08:27:33.336Z,78.53
2018-01-20T08:28:33.401Z,79.19
2018-01-20T08:29:33.363Z,78.72
2018-01-20T08:30:33.381Z,78.66
2018-01-20T08:31:33.387Z,78.47
2018-01-20T08:32:33.406Z,78.19
2018-01-20T08:33:33.425Z,78.34
2018-01-20T08:34:33.435Z,79.28
2018-01-20T08:35:33.445Z,79.57
2018-01-20T08:36:33.457Z,79.00
2018-01-20T08:37:33.478Z,78.75
2018-01-20T08:38:33.533Z,78.56
2018-01-20T08:39:33.509Z,78.47
2018-01-20T08:40:33.513Z,78.47
2018-01-20T08:41:33.539Z,78.47
2018-01-20T08:42:33.539Z,78.28
2018-01-20T08:43:33.555Z,77.24
2018-01-20T08:44:33.568Z,77.81
2018-01-20T08:45:33.578Z,77.52
2018-01-20T08:46:33.596Z,77.90
2018-01-20T08:47:33.607Z,77.52
2018-01-20T08:48:33.628Z,76.95
2018-01-20T08:49:33.639Z,77.86
2018-01-20T08:50:33.652Z,78.28
2018-01-20T08:51:33.667Z,77.14
2018-01-20T08:52:33.687Z,77.71
2018-01-20T08:53:33.694Z,77.90
2018-01-20T08:54:33.715Z,77.81
2018-01-20T08:55:33.720Z,77.14
2018-01-20T08:56:33.736Z,77.43
2018-01-20T08:57:33.751Z,76.67
2018-01-20T08:58:33.768Z,76.76
2018-01-20T08:59:33.777Z,77.24
2018-01-20T09:00:33.793Z,76.67
2018-01-20T09:01:33.805Z,76.76
2018-01-20T09:02:33.816Z,77.52
2018-01-20T09:03:33.838Z,77.24
2018-01-20T09:04:33.849Z,78.47
2018-01-20T09:05:33.859Z,78.56
2018-01-20T09:06:33.872Z,78.81
2018-01-20T09:07:33.888Z,78.43
2018-01-20T09:08:33.900Z,79.38
2018-01-20T09:09:33.917Z,79.76
2018-01-20T09:10:33.928Z,79.28
2018-01-20T09:11:33.937Z,79.85
2018-01-20T09:12:33.958Z,80.14
2018-01-20T09:13:33.972Z,79.95
2018-01-20T09:14:33.981Z,80.04
2018-01-20T09:15:33.994Z,79.95
2018-01-20T09:16:34.006Z,80.33
2018-01-20T09:17:34.019Z,80.33
2018-01-20T09:18:34.076Z,80.80
2018-01-20T09:19:34.051Z,80.99
2018-01-20T09:20:34.067Z,81.09
2018-01-20T09:21:34.080Z,81.37
2018-01-20T09:22:34.085Z,81.37
2018-01-20T09:23:34.112Z,81.37
2018-01-20T09:24:34.117Z,81.94
2018-01-20T09:25:34.127Z,81.75
2018-01-20T09:26:34.145Z,81.37
2018-01-20T09:27:34.159Z,81.94
2018-01-20T09:28:34.170Z,82.04
2018-01-20T09:29:34.186Z,82.23
2018-01-20T09:30:34.205Z,81.47
2018-01-20T09:31:34.208Z,80.80
2018-01-20T09:32:34.223Z,81.13
2018-01-20T09:33:34.237Z,81.47
2018-01-20T09:34:34.249Z,81.37
2018-01-20T09:35:34.281Z,81.79
2018-01-20T09:36:34.285Z,81.70
2018-01-20T09:37:34.295Z,81.51
2018-01-20T09:38:34.301Z,81.18
2018-01-20T09:39:34.322Z,81.75
2018-01-20T09:40:34.332Z,82.23
2018-01-20T09:41:34.345Z,82.08
2018-01-20T09:42:34.372Z,81.70
2018-01-20T09:43:34.371Z,81.32
2018-01-20T09:44:34.385Z,81.79
2018-01-20T09:45:34.398Z,81.79
2018-01-20T09:46:34.414Z,81.70
2018-01-20T09:47:34.432Z,81.60
2018-01-20T09:48:34.443Z,81.70
2018-01-20T09:49:34.458Z,81.41
2018-01-20T09:50:34.470Z,81.60
2018-01-20T09:51:34.517Z,81.51
2018-01-20T09:52:34.491Z,81.60
2018-01-20T09:53:34.513Z,81.13
2018-01-20T09:54:34.526Z,80.18
2018-01-20T09:55:34.547Z,80.94
2018-01-20T09:56:34.558Z,81.23
2018-01-20T09:57:34.567Z,81.60
2018-01-20T09:58:34.580Z,81.66
2018-01-20T09:59:34.596Z,82.17
2018-01-20T10:00:34.607Z,81.88
2018-01-20T10:01:34.639Z,81.51
2018-01-20T10:02:34.637Z,81.70
2018-01-20T10:03:34.652Z,80.84
2018-01-20T10:04:34.660Z,80.18
2018-01-20T10:05:34.686Z,81.04
2018-01-20T10:06:34.686Z,80.37
2018-01-20T10:07:34.703Z,80.94
2018-01-20T10:08:34.721Z,81.51
2018-01-20T10:09:34.793Z,81.13
2018-01-20T10:10:34.749Z,81.60
2018-01-20T10:11:34.813Z,81.79
2018-01-20T10:12:34.781Z,81.79
2018-01-20T10:13:34.809Z,81.32
2018-01-20T10:14:34.804Z,80.65
2018-01-20T10:15:34.828Z,80.41
2018-01-20T10:16:34.834Z,80.03
2018-01-20T10:17:34.839Z,80.13
2018-01-20T10:18:34.862Z,79.61
2018-01-20T10:19:34.876Z,79.04
2018-01-20T10:20:34.893Z,79.14
2018-01-20T10:21:34.895Z,79.04
2018-01-20T10:22:34.917Z,78.99
2018-01-20T10:23:34.932Z,79.04
2018-01-20T10:24:35.092Z,79.23
2018-01-20T10:25:34.959Z,79.04
2018-01-20T10:26:34.997Z,79.33
2018-01-20T10:27:34.984Z,79.42
2018-01-20T10:28:35.000Z,79.61
2018-01-20T10:29:35.016Z,80.27
2018-01-20T10:30:35.027Z,79.99
2018-01-20T10:31:35.042Z,79.80
2018-01-20T10:32:35.050Z,79.65
2018-01-20T10:33:35.069Z,79.55
2018-01-20T10:34:35.084Z,79.08
2018-01-20T10:35:35.097Z,78.51
2018-01-20T10:36:35.113Z,78.61
2018-01-20T10:37:35.122Z,78.99
2018-01-20T10:38:35.136Z,78.70
2018-01-20T10:39:35.161Z,79.08
2018-01-20T10:40:35.217Z,78.70
2018-01-20T10:41:35.180Z,78.61
2018-01-20T10:42:35.264Z,78.51
2018-01-20T10:43:35.215Z,79.08
2018-01-20T10:44:35.236Z,78.89
2018-01-20T10:45:35.245Z,78.80
2018-01-20T10:46:35.264Z,78.23
2018-01-20T10:47:35.272Z,77.94
2018-01-20T10:48:35.277Z,77.94
2018-01-20T10:49:35.296Z,78.61
2018-01-20T10:50:35.312Z,78.51
2018-01-20T10:51:35.334Z,79.27
2018-01-20T10:52:35.340Z,78.51
2018-01-20T10:53:35.373Z,78.80
2018-01-20T10:54:35.377Z,78.70
2018-01-20T10:55:35.400Z,78.42
2018-01-20T10:56:35.399Z,78.03
2018-01-20T10:57:35.420Z,77.56
2018-01-20T10:58:35.421Z,77.28
2018-01-20T10:59:35.438Z,76.80
2018-01-20T11:00:35.455Z,78.23
2018-01-20T11:01:35.470Z,78.03
2018-01-20T11:02:35.479Z,77.94
2018-01-20T11:03:35.497Z,77.28
2018-01-20T11:04:35.530Z,77.84
2018-01-20T11:05:35.527Z,77.84
2018-01-20T11:06:35.544Z,78.51
2018-01-20T11:07:35.560Z,78.70
2018-01-20T11:08:35.570Z,78.03
2018-01-20T11:09:35.589Z,77.28
2018-01-20T11:10:35.603Z,77.47
2018-01-20T11:11:35.615Z,77.28
2018-01-20T11:12:35.625Z,76.80
2018-01-20T11:13:35.662Z,77.66
2018-01-20T11:14:35.659Z,77.75
2018-01-20T11:15:35.671Z,77.28
2018-01-20T11:16:35.689Z,76.90
2018-01-20T11:17:35.709Z,76.71
2018-01-20T11:18:35.721Z,76.80
2018-01-20T11:19:35.748Z,76.80
2018-01-20T11:20:35.743Z,77.09
2018-01-20T11:21:35.760Z,76.80
2018-01-20T11:22:35.770Z,76.42
2018-01-20T11:23:35.793Z,76.14
2018-01-20T11:24:35.806Z,76.04
2018-01-20T11:25:35.825Z,75.95
2018-01-20T11:26:35.829Z,75.95
2018-01-20T11:27:35.849Z,76.32
2018-01-20T11:28:35.868Z,76.90
2018-01-20T11:29:35.884Z,76.32
2018-01-20T11:30:35.895Z,76.56
2018-01-20T11:31:35.924Z,76.80
2018-01-20T11:32:35.920Z,76.90
2018-01-20T11:33:35.936Z,76.32
2018-01-20T11:34:35.956Z,75.76
2018-01-20T11:35:35.965Z,76.04
2018-01-20T11:36:35.984Z,76.42
2018-01-20T11:37:35.997Z,75.85
2018-01-20T11:38:36.015Z,75.19
2018-01-20T11:39:36.027Z,75.28
2018-01-20T11:40:36.038Z,76.42
2018-01-20T11:41:36.057Z,76.04
2018-01-20T11:42:36.069Z,75.67
2018-01-20T11:43:36.082Z,76.14
2018-01-20T11:44:36.106Z,75.51
2018-01-20T11:45:36.123Z,76.14
2018-01-20T11:46:36.133Z,76.99
2018-01-20T11:47:36.145Z,76.80
2018-01-20T11:48:36.155Z,76.52
2018-01-20T11:49:36.186Z,76.80
2018-01-20T11:50:36.190Z,76.99
2018-01-20T11:51:36.257Z,76.90
2018-01-20T11:52:36.215Z,77.37
2018-01-20T11:53:36.233Z,77.56
2018-01-20T11:54:36.277Z,77.66
2018-01-20T11:55:36.268Z,77.66
2018-01-20T11:56:36.279Z,77.75
2018-01-20T11:57:36.293Z,76.23
2018-01-20T11:58:36.307Z,75.95
2018-01-20T11:59:36.336Z,76.32
2018-01-20T12:00:36.347Z,76.80
2018-01-20T12:01:36.351Z,77.75
2018-01-20T12:02:36.377Z,78.32
2018-01-20T12:03:36.393Z,78.80
2018-01-20T12:04:36.402Z,78.70
2018-01-20T12:05:36.416Z,78.89
2018-01-20T12:06:36.433Z,78.51
2018-01-20T12:07:36.462Z,77.75
2018-01-20T12:08:36.460Z,76.56
2018-01-20T12:09:36.485Z,76.23
2018-01-20T12:10:36.490Z,76.46
2018-01-20T12:11:36.506Z,76.99
2018-01-20T12:12:36.572Z,76.71
2018-01-20T12:13:36.590Z,76.80
2018-01-20T12:14:36.569Z,75.28
2018-01-20T12:15:36.570Z,75.95
2018-01-20T12:16:36.576Z,76.14
2018-01-20T12:18:36.607Z,76.90
2018-01-20T12:19:36.633Z,77.60
2018-01-20T12:20:36.643Z,77.89
2018-01-20T12:21:36.655Z,78.80
2018-01-20T12:22:36.672Z,78.83
2018-01-20T12:23:36.688Z,78.89
2018-01-20T12:24:36.700Z,78.70
2018-01-20T12:25:36.719Z,78.80
2018-01-20T12:26:36.736Z,78.80
2018-01-20T12:27:36.756Z,78.27
2018-01-20T12:28:36.768Z,77.56
2018-01-20T12:29:36.783Z,78.03
2018-01-20T12:30:36.791Z,78.99
2018-01-20T12:31:36.815Z,80.03
2018-01-20T12:32:36.832Z,79.55
2018-01-20T12:33:36.834Z,79.22
2018-01-20T12:34:36.854Z,78.89
2018-01-20T12:35:36.875Z,79.65
2018-01-20T12:36:36.884Z,80.32
2018-01-20T12:37:36.900Z,80.35
2018-01-20T12:38:36.916Z,80.03
2018-01-20T12:39:36.947Z,81.07
2018-01-20T12:40:36.953Z,80.93
2018-01-20T12:41:36.985Z,80.83
2018-01-20T12:42:36.976Z,80.45
2018-01-20T12:43:37.003Z,79.12
2018-01-20T12:44:37.007Z,79.12
2018-01-20T12:45:37.031Z,79.31
2018-01-20T12:46:37.046Z,79.03
2018-01-20T12:47:37.058Z,78.93
2018-01-20T12:48:37.104Z,79.03
2018-01-20T12:49:37.089Z,78.83
2018-01-20T12:50:37.100Z,78.93
2018-01-20T12:51:37.117Z,79.03
2018-01-20T12:52:37.137Z,78.93
2018-01-20T12:53:37.151Z,79.03